aviador You're here:

GMAG Decoded Metar

in
Report Time2018-02-20 13:00:00
UTC Time2018-02-20 13:53:46
Flight Rules vfr VFR
Wind300° at 08 kt
W.Decomp.*RWY 23: 2.7 kt HW 7.5 kt RCW
W.Rank300° ranks 3
Current wind is below 300° avg. (8.4)
Visibility9999 m
Phenomena:N/A
Clouds:Scattered 016 Hf
Expected CloudBase > 2,400 ft AGL from Temp-Dew spread
CeilingNone
Temp16°C
Dew Point10°C (68% RH)
AAT13.2°C
QNH1012 hPa
Raw Report
METAR GMAG 201300Z 30008KT 9999 SCT016 16/10 Q1012 NOSIG=

Extra information for GMAG:More info

Social comments